ID Time Temp Humidity Light PM2.5 PM10 Voltage Extra Firmware Position Fcnt Gateways Distance RSSI LSNR Radiosettings
2020-10-29 05:00:16 7.5°C 97.6875% 3.38V v1 52.1991 / 5.41205 755 - -77 9.25 867.5Mhz, SF9BW125, 4/5CR
- -116 -10.25 867.5Mhz, SF9BW125, 4/5CR
2020-10-29 04:43:19 7.6875°C 97.875% 3.38V v1 52.1991 / 5.41205 754 - -81 8.5 868.5Mhz, SF9BW125, 4/5CR
2020-10-29 04:26:22 7.625°C 97.8125% 3.39V v1 52.1991 / 5.41205 753 - -77 13.25 867.3Mhz, SF9BW125, 4/5CR
- -117 -7.75 867.3Mhz, SF9BW125, 4/5CR
2020-10-29 04:09:25 7.625°C 97.6875% 3.38V v1 52.1991 / 5.41205 752 - -81 13 868.3Mhz, SF9BW125, 4/5CR
2020-10-29 03:52:29 7.625°C 97.875% 3.38V v1 52.1991 / 5.41205 751 - -77 12.25 867.1Mhz, SF9BW125, 4/5CR
- -119 -11 867.1Mhz, SF9BW125, 4/5CR
2020-10-29 03:35:32 7.75°C 97.625% 3.38V v1 52.1991 / 5.41205 750 - -81 12.5 868.1Mhz, SF9BW125, 4/5CR
2020-10-29 03:18:35 7.875°C 97.5625% 3.38V v1 52.1991 / 5.41205 749 - -81 13.75 867.9Mhz, SF9BW125, 4/5CR
- -117 -10.75 867.9Mhz, SF9BW125, 4/5CR
2020-10-29 03:01:38 8.0625°C 97.25% 3.38V v1 52.1991 / 5.41205 748 - -81 8.5 868.5Mhz, SF9BW125, 4/5CR
2020-10-29 02:44:41 8.25°C 97.1875% 3.38V v1 52.1991 / 5.41205 747 - -79 12.75 867.7Mhz, SF9BW125, 4/5CR
- -116 -6.75 867.7Mhz, SF9BW125, 4/5CR
2020-10-29 02:27:44 8.375°C 97.5% 3.38V v1 52.1991 / 5.41205 746 - -81 14 868.3Mhz, SF9BW125, 4/5CR
2020-10-29 02:10:47 8.5°C 97.6875% 3.38V v1 52.1991 / 5.41205 745 - -81 8 867.5Mhz, SF9BW125, 4/5CR
2020-10-29 01:53:50 8.625°C 97.5625% 3.38V v1 52.1991 / 5.41205 744 - -83 13.5 868.1Mhz, SF9BW125, 4/5CR
2020-10-29 01:36:53 8.6875°C 96.875% 3.38V v1 52.1991 / 5.41205 743 - -75 12 867.3Mhz, SF9BW125, 4/5CR
- -119 -6.25 867.3Mhz, SF9BW125, 4/5CR
2020-10-29 01:19:56 8.9375°C 96% 3.38V v1 52.1991 / 5.41205 742 - -79 9 868.5Mhz, SF9BW125, 4/5CR
- -117 -10.25 868.5Mhz, SF9BW125, 4/5CR
2020-10-29 01:02:59 9.25°C 96.4375% 3.38V v1 52.1991 / 5.41205 741 - -76 12 867.1Mhz, SF9BW125, 4/5CR
2020-10-29 00:46:02 9.3125°C 97.25% 3.39V v1 52.1991 / 5.41205 740 - -78 12 868.3Mhz, SF9BW125, 4/5CR
2020-10-29 00:29:05 9.3125°C 97.9375% 3.38V v1 52.1991 / 5.41205 739 - -83 13.5 867.9Mhz, SF9BW125, 4/5CR
- -119 -11.75 867.9Mhz, SF9BW125, 4/5CR
2020-10-29 00:12:08 9.25°C 98% 3.38V v1 52.1991 / 5.41205 738 - -81 13.5 868.1Mhz, SF9BW125, 4/5CR
2020-10-28 23:55:10 9.3125°C 98.0625% 3.38V v1 52.1991 / 5.41205 737 - -79 12.5 867.7Mhz, SF9BW125, 4/5CR
2020-10-28 23:38:13 9.3125°C 98% 3.38V v1 52.1991 / 5.41205 736 - -79 9.75 868.5Mhz, SF9BW125, 4/5CR
- -115 -10.75 868.5Mhz, SF9BW125, 4/5CR
2020-10-28 23:21:16 9.25°C 98.1875% 3.38V v1 52.1991 / 5.41205 735 - -72 9 867.5Mhz, SF9BW125, 4/5CR
2020-10-28 23:04:19 9.25°C 98.125% 3.38V v1 52.1991 / 5.41205 734 - -78 12 868.3Mhz, SF9BW125, 4/5CR
2020-10-28 22:47:22 9.3125°C 98.25% 3.38V v1 52.1991 / 5.41205 733 - -77 14 867.3Mhz, SF9BW125, 4/5CR
- -119 -4.75 867.3Mhz, SF9BW125, 4/5CR
2020-10-28 22:30:25 9.375°C 98.375% 3.38V v1 52.1991 / 5.41205 732 - -79 12.25 868.1Mhz, SF9BW125, 4/5CR
- -117 -6.75 868.1Mhz, SF9BW125, 4/5CR
2020-10-28 22:13:28 9.3125°C 98.25% 3.38V v1 52.1991 / 5.41205 731 - -77 13.25 867.1Mhz, SF9BW125, 4/5CR
- -120 -12.5 867.1Mhz, SF9BW125, 4/5CR
- -119 -14 867.1Mhz, SF9BW125, 4/5CR
2020-10-28 21:56:31 9.3125°C 98% 3.38V v1 52.1991 / 5.41205 730 - -77 10 868.5Mhz, SF9BW125, 4/5CR
2020-10-28 21:39:33 9.1875°C 98.25% 3.39V v1 52.1991 / 5.41205 729 - -81 13.75 867.9Mhz, SF9BW125, 4/5CR
- -119 -6 867.9Mhz, SF9BW125, 4/5CR
2020-10-28 21:22:36 9.25°C 98.3125% 3.38V v1 52.1991 / 5.41205 728 - -81 14.25 868.3Mhz, SF9BW125, 4/5CR
2020-10-28 21:05:39 9.25°C 98.5% 3.38V v1 52.1991 / 5.41205 727 - -75 12.25 867.7Mhz, SF9BW125, 4/5CR
- -115 -4.75 867.7Mhz, SF9BW125, 4/5CR
2020-10-28 20:48:42 9.375°C 98.5% 3.38V v1 52.1991 / 5.41205 726 - -83 13.75 868.1Mhz, SF9BW125, 4/5CR
2020-10-28 20:31:45 9.3125°C 98.6875% 3.38V v1 52.1991 / 5.41205 725 - -75 8.75 867.5Mhz, SF9BW125, 4/5CR
- -117 -10.5 867.5Mhz, SF9BW125, 4/5CR
2020-10-28 20:14:48 9.1875°C 99.3125% 3.38V v1 52.1991 / 5.41205 724 - -81 9 868.5Mhz, SF9BW125, 4/5CR
2020-10-28 19:57:51 9°C 99.5% 3.38V v1 52.1991 / 5.41205 723 - -75 12.5 867.3Mhz, SF9BW125, 4/5CR
- -116 -6.25 867.3Mhz, SF9BW125, 4/5CR
2020-10-28 19:40:54 8.5625°C 99.5% 3.39V v1 52.1991 / 5.41205 722 - -75 12.75 868.3Mhz, SF9BW125, 4/5CR
2020-10-28 19:23:57 8.375°C 99.1875% 3.38V v1 52.1991 / 5.41205 721 - -79 12.5 867.1Mhz, SF9BW125, 4/5CR
- -119 -11.5 867.1Mhz, SF9BW125, 4/5CR
2020-10-28 19:07:00 8.3125°C 98.8125% 3.38V v1 52.1991 / 5.41205 720 - -77 12.5 868.1Mhz, SF9BW125, 4/5CR
- -119 -11.75 868.1Mhz, SF9BW125, 4/5CR
2020-10-28 18:50:03 8.3125°C 98.625% 3.39V v1 52.1991 / 5.41205 719 - -77 11.75 867.9Mhz, SF9BW125, 4/5CR
- -117 -7.75 867.9Mhz, SF9BW125, 4/5CR
- -117 -13.75 867.9Mhz, SF9BW125, 4/5CR
2020-10-28 18:33:06 8.4375°C 98.5% 3.38V v1 52.1991 / 5.41205 718 - -77 8.75 868.5Mhz, SF9BW125, 4/5CR
2020-10-28 18:16:09 8.5°C 98.4375% 3.38V v1 52.1991 / 5.41205 717 - -79 13.5 867.7Mhz, SF9BW125, 4/5CR
- -116 -8 867.7Mhz, SF9BW125, 4/5CR
- -119 -13.5 867.7Mhz, SF9BW125, 4/5CR
2020-10-28 17:59:12 8.5625°C 98.0625% 3.38V v1 52.1991 / 5.41205 716 - -81 12.75 868.3Mhz, SF9BW125, 4/5CR
2020-10-28 17:42:15 8.6875°C 97.6875% 3.39V v1 52.1991 / 5.41205 715 - -79 9.25 867.5Mhz, SF9BW125, 4/5CR
2020-10-28 17:25:18 8.875°C 97.1875% 3.39V v1 52.1991 / 5.41205 714 - -85 13.5 868.1Mhz, SF9BW125, 4/5CR
- -116 -7.5 868.1Mhz, SF9BW125, 4/5CR
2020-10-28 17:08:21 8.9375°C 96.375% 3.38V v1 52.1991 / 5.41205 713 - -81 12.25 867.3Mhz, SF9BW125, 4/5CR
- -117 -5 867.3Mhz, SF9BW125, 4/5CR
2020-10-28 16:51:24 9.125°C 95.5% 3.38V v1 52.1991 / 5.41205 712 - -76 9.75 868.5Mhz, SF9BW125, 4/5CR
2020-10-28 16:34:27 9.3125°C 95.25% 3.39V v1 52.1991 / 5.41205 711 - -77 12.75 867.1Mhz, SF9BW125, 4/5CR
- -118 -9.5 867.1Mhz, SF9BW125, 4/5CR
2020-10-28 16:17:29 9.6875°C 93.5625% 3.38V v1 52.1991 / 5.41205 710 - -83 13.75 868.3Mhz, SF9BW125, 4/5CR
2020-10-28 16:00:32 10°C 91.5625% 3.39V v1 52.1991 / 5.41205 709 - -81 13 867.9Mhz, SF9BW125, 4/5CR
- -119 -12.25 867.9Mhz, SF9BW125, 4/5CR
2020-10-28 15:43:35 10.4375°C 91.125% 3.38V v1 52.1991 / 5.41205 708 - -79 11.75 868.1Mhz, SF9BW125, 4/5CR
- -119 -11.5 868.1Mhz, SF9BW125, 4/5CR
2020-10-28 15:26:37 11°C 92% 3.38V v1 52.1991 / 5.41205 707 - -79 12.75 867.7Mhz, SF9BW125, 4/5CR
- -116 -9.25 867.7Mhz, SF9BW125, 4/5CR
2020-10-28 15:09:40 10.875°C 93.5625% 3.38V v1 52.1991 / 5.41205 706 - -79 8.5 868.5Mhz, SF9BW125, 4/5CR

Message count: 50
Node count: 1

Messages per node

Number of messages in list aboveNodes
50

Statistics per gateway

GatewayNumber of messagesNumber of nodesNodes
501
251
31
11

Filter by dataset